Time;durP1;ratioP1;P1;durP2;ratioP2;P2;SDS_P1;SDS_P2;PMS_P1;PMS_P2;Temp;Humidity;BMP_temperature;BMP_pressure;BME280_temperature;BME280_humidity;BME280_pressure;Samples;Min_cycle;Max_cycle;Signal;HPM_P1;HPM_P2
2024/02/22 00:00:53;;;;;;;;;;;;;;;;;;5070510;28;20327;-73
2024/02/22 00:03:18;;;;;;;;;;;;;;;;;;5071172;28;20003;-73
2024/02/22 00:05:43;;;;;;;;;;;;;;;;;;5070271;28;19908;-73
2024/02/22 00:08:08;;;;;;;;;;;;;;;;;;5071062;28;19912;-76
2024/02/22 00:10:33;;;;;;;;;;;;;;;;;;5053441;28;19913;-77
2024/02/22 00:12:58;;;;;;;;;;;;;;;;;;5070595;28;19920;-75
2024/02/22 00:15:23;;;;;;;;;;;;;;;;;;5071561;28;19933;-76
2024/02/22 00:17:49;;;;;;;;;;;;;;;;;;5072228;28;19935;-76
2024/02/22 00:20:16;;;;;;;;;;;;;;;;;;5073016;28;19973;-76
2024/02/22 00:22:41;;;;;;;;;;;;;;;;;;5069307;28;19916;-76
2024/02/22 00:25:06;;;;;;;;;;;;;;;;;;5072934;28;19919;-76
2024/02/22 00:27:31;;;;;;;;;;;;;;;;;;5069984;28;20398;-76
2024/02/22 00:29:56;;;;;;;;;;;;;;;;;;5070497;28;20353;-76
2024/02/22 00:32:21;;;;;;;;;;;;;;;;;;5072309;28;19936;-76
2024/02/22 00:34:46;;;;;;;;;;;;;;;;;;5069581;28;19924;-76
2024/02/22 00:37:12;;;;;;;;;;;;;;;;;;5071272;28;19935;-77
2024/02/22 00:39:37;;;;;;;;;;;;;;;;;;5069009;28;19912;-76
2024/02/22 00:42:02;;;;;;;;;;;;;;;;;;5071106;28;20648;-77
2024/02/22 00:44:27;;;;;;;;;;;;;;;;;;5070432;28;19979;-77
2024/02/22 00:46:54;;;;;;;;;;;;;;;;;;5071731;28;20003;-76
2024/02/22 00:49:19;;;;;;;;;;;;;;;;;;5070277;28;20370;-76
2024/02/22 00:51:44;;;;;;;;;;;;;;;;;;5070852;28;21244;-76
2024/02/22 00:54:09;;;;;;;;;;;;;;;;;;5070248;28;20313;-76
2024/02/22 00:56:36;;;;;;;;;;;;;;;;;;5070611;28;19947;-76
2024/02/22 00:59:02;;;;;;;;;;;;;;;;;;5068190;28;19920;-77
2024/02/22 01:01:27;;;;;;;;;;;;;;;;;;5070643;28;19912;-76
2024/02/22 01:03:52;;;;;;;;;;;;;;;;;;5072001;28;19912;-76
2024/02/22 01:06:21;;;;;;;;;;;;;;;;;;5070448;28;19955;-76
2024/02/22 01:08:46;;;;;;;;;;;;;;;;;;5070570;28;20383;-76
2024/02/22 01:11:11;;;;;;;;;;;;;;;;;;5072291;28;19939;-77
2024/02/22 01:13:36;;;;;;;;;;;;;;;;;;5070455;28;19916;-76
2024/02/22 01:16:01;;;;;;;;;;;;;;;;;;5051729;28;19921;-76
2024/02/22 01:18:26;;;;;;;;;;;;;;;;;;5070657;28;19936;-75
2024/02/22 01:20:52;;;;;;;;;;;;;;;;;;5070931;28;19973;-75
2024/02/22 01:23:17;;;;;;;;;;;;;;;;;;5069516;28;19920;-75
2024/02/22 01:25:42;;;;;;;;;;;;;;;;;;5069560;28;19913;-75
2024/02/22 01:28:12;;;;;;;;;;;;;;;;;;5070685;28;19920;-75
2024/02/22 01:30:37;;;;;;;;;;;;;;;;;;5070461;28;20017;-75
2024/02/22 01:33:02;;;;;;;;;;;;;;;;;;5069011;28;19917;-75
2024/02/22 01:35:27;;;;;;;;;;;;;;;;;;5069769;28;19913;-75
2024/02/22 01:37:52;;;;;;;;;;;;;;;;;;5069941;28;19923;-75
2024/02/22 01:40:17;;;;;;;;;;;;;;;;;;5069813;28;20019;-75
2024/02/22 01:42:43;;;;;;;;;;;;;;;;;;5068769;28;19920;-75
2024/02/22 01:45:08;;;;;;;;;;;;;;;;;;5051693;28;19920;-74
2024/02/22 01:47:33;;;;;;;;;;;;;;;;;;5068287;28;19923;-75
2024/02/22 01:49:58;;;;;;;;;;;;;;;;;;5069546;28;19950;-74
2024/02/22 01:52:23;;;;;;;;;;;;;;;;;;5070179;28;20292;-74
2024/02/22 01:54:48;;;;;;;;;;;;;;;;;;5069537;28;19912;-75
2024/02/22 01:57:13;;;;;;;;;;;;;;;;;;5069493;28;19934;-74
2024/02/22 01:59:39;;;;;;;;;;;;;;;;;;5068135;28;20001;-74
2024/02/22 02:02:04;;;;;;;;;;;;;;;;;;5068785;28;20284;-74
2024/02/22 02:04:29;;;;;;;;;;;;;;;;;;5070076;28;20292;-75
2024/02/22 02:06:54;;;;;;;;;;;;;;;;;;5069137;28;19908;-75
2024/02/22 02:09:19;;;;;;;;;;;;;;;;;;5069952;28;20060;-75
2024/02/22 02:11:46;;;;;;;;;;;;;;;;;;5052635;28;19916;-75
2024/02/22 02:14:11;;;;;;;;;;;;;;;;;;5070971;28;19912;-75
2024/02/22 02:16:36;;;;;;;;;;;;;;;;;;5069993;28;20365;-74
2024/02/22 02:19:06;;;;;;;;;;;;;;;;;;5068710;28;20326;-75
2024/02/22 02:21:31;;;;;;;;;;;;;;;;;;5067582;28;19978;-74
2024/02/22 02:23:57;;;;;;;;;;;;;;;;;;5069861;28;19917;-75
2024/02/22 02:26:22;;;;;;;;;;;;;;;;;;5069631;28;20300;-75
2024/02/22 02:28:47;;;;;;;;;;;;;;;;;;5069374;28;19999;-73
2024/02/22 02:31:12;;;;;;;;;;;;;;;;;;5068768;28;19916;-73
2024/02/22 02:33:37;;;;;;;;;;;;;;;;;;5068793;28;20294;-73
2024/02/22 02:36:03;;;;;;;;;;;;;;;;;;5070524;28;20417;-73
2024/02/22 02:38:28;;;;;;;;;;;;;;;;;;5068516;28;19912;-73
2024/02/22 02:40:53;;;;;;;;;;;;;;;;;;5069113;28;19912;-73
2024/02/22 02:43:18;;;;;;;;;;;;;;;;;;5067754;28;19920;-73
2024/02/22 02:45:43;;;;;;;;;;;;;;;;;;5070190;28;19951;-72
2024/02/22 02:48:08;;;;;;;;;;;;;;;;;;5068314;28;19966;-73
2024/02/22 02:50:33;;;;;;;;;;;;;;;;;;5070013;28;20292;-73
2024/02/22 02:52:58;;;;;;;;;;;;;;;;;;5050579;28;19957;-73
2024/02/22 02:55:24;;;;;;;;;;;;;;;;;;5069159;28;19981;-73
2024/02/22 02:57:49;;;;;;;;;;;;;;;;;;5071320;28;19920;-73
2024/02/22 03:00:15;;;;;;;;;;;;;;;;;;5073081;28;20330;-73
2024/02/22 03:02:40;;;;;;;;;;;;;;;;;;5073083;28;19957;-74
2024/02/22 03:05:05;;;;;;;;;;;;;;;;;;5073129;28;19920;-74
2024/02/22 03:07:31;;;;;;;;;;;;;;;;;;5072645;28;19913;-74
2024/02/22 03:09:56;;;;;;;;;;;;;;;;;;5071688;28;20018;-73
2024/02/22 03:12:21;;;;;;;;;;;;;;;;;;5072817;28;19971;-74
2024/02/22 03:14:46;;;;;;;;;;;;;;;;;;5071539;28;19917;-74
2024/02/22 03:17:11;;;;;;;;;;;;;;;;;;5072119;28;19968;-74
2024/02/22 03:19:36;;;;;;;;;;;;;;;;;;5072775;28;19921;-74
2024/02/22 03:22:01;;;;;;;;;;;;;;;;;;5070316;28;19928;-74
2024/02/22 03:24:26;;;;;;;;;;;;;;;;;;5071808;28;19916;-74
2024/02/22 03:26:53;;;;;;;;;;;;;;;;;;5072628;28;19956;-74
2024/02/22 03:29:18;;;;;;;;;;;;;;;;;;5072408;28;19916;-74
2024/02/22 03:31:44;;;;;;;;;;;;;;;;;;5072983;28;19924;-74
2024/02/22 03:34:09;;;;;;;;;;;;;;;;;;5073636;28;19919;-74
2024/02/22 03:36:41;;;;;;;;;;;;;;;;;;5072566;28;19967;-74
2024/02/22 03:39:06;;;;;;;;;;;;;;;;;;5071760;28;20445;-75
2024/02/22 03:41:31;;;;;;;;;;;;;;;;;;5071007;28;19924;-76
2024/02/22 03:43:56;;;;;;;;;;;;;;;;;;5072158;28;19912;-76
2024/02/22 03:46:22;;;;;;;;;;;;;;;;;;5070979;28;19912;-76
2024/02/22 03:48:47;;;;;;;;;;;;;;;;;;5072487;28;19982;-76
2024/02/22 03:51:12;;;;;;;;;;;;;;;;;;5072115;28;19923;-75
2024/02/22 03:53:37;;;;;;;;;;;;;;;;;;5072056;28;20346;-76
2024/02/22 03:56:03;;;;;;;;;;;;;;;;;;5071980;28;20674;-75
2024/02/22 03:58:28;;;;;;;;;;;;;;;;;;5072101;28;19938;-75
2024/02/22 04:00:53;;;;;;;;;;;;;;;;;;5071702;28;19947;-75
2024/02/22 04:03:18;;;;;;;;;;;;;;;;;;5071900;28;20041;-76
2024/02/22 04:05:44;;;;;;;;;;;;;;;;;;5071920;28;19938;-76
2024/02/22 04:08:09;;;;;;;;;;;;;;;;;;5070790;28;19916;-75
2024/02/22 04:10:34;;;;;;;;;;;;;;;;;;5070556;28;20379;-75
2024/02/22 04:12:59;;;;;;;;;;;;;;;;;;5052345;28;20410;-75
2024/02/22 04:15:25;;;;;;;;;;;;;;;;;;5072064;28;20368;-75
2024/02/22 04:17:50;;;;;;;;;;;;;;;;;;5070697;28;19912;-75
2024/02/22 04:20:15;;;;;;;;;;;;;;;;;;5054871;28;20515;-75
2024/02/22 04:22:40;;;;;;;;;;;;;;;;;;5071075;28;19930;-75
2024/02/22 04:25:05;;;;;;;;;;;;;;;;;;5069296;28;19990;-75
2024/02/22 04:27:31;;;;;;;;;;;;;;;;;;5072280;28;19912;-75
2024/02/22 04:29:56;;;;;;;;;;;;;;;;;;5070218;28;19920;-75
2024/02/22 04:32:21;;;;;;;;;;;;;;;;;;5071123;28;19956;-75
2024/02/22 04:34:46;;;;;;;;;;;;;;;;;;5072747;28;19920;-75
2024/02/22 04:37:11;;;;;;;;;;;;;;;;;;5071544;28;20775;-74
2024/02/22 04:39:36;;;;;;;;;;;;;;;;;;5070146;28;19931;-75
2024/02/22 04:42:01;;;;;;;;;;;;;;;;;;5071053;28;19924;-75
2024/02/22 04:44:27;;;;;;;;;;;;;;;;;;5070375;28;19913;-75
2024/02/22 04:46:52;;;;;;;;;;;;;;;;;;5071468;28;20418;-75
2024/02/22 04:49:17;;;;;;;;;;;;;;;;;;5070542;28;19917;-75
2024/02/22 04:51:42;;;;;;;;;;;;;;;;;;5070222;28;19942;-75
2024/02/22 04:54:07;;;;;;;;;;;;;;;;;;5054268;28;20419;-75
2024/02/22 04:56:32;;;;;;;;;;;;;;;;;;5069508;28;19919;-75
2024/02/22 04:58:58;;;;;;;;;;;;;;;;;;5072890;28;19923;-75
2024/02/22 05:01:23;;;;;;;;;;;;;;;;;;5071267;28;20356;-75
2024/02/22 05:03:48;;;;;;;;;;;;;;;;;;5070667;28;19924;-75
2024/02/22 05:06:13;;;;;;;;;;;;;;;;;;5052156;28;19951;-75
2024/02/22 05:08:38;;;;;;;;;;;;;;;;;;5069188;28;20003;-75
2024/02/22 05:11:04;;;;;;;;;;;;;;;;;;5070533;28;20406;-74
2024/02/22 05:13:29;;;;;;;;;;;;;;;;;;5069639;28;19924;-75
2024/02/22 05:15:54;;;;;;;;;;;;;;;;;;5068814;28;20357;-75
2024/02/22 05:18:19;;;;;;;;;;;;;;;;;;5067828;28;19942;-75
2024/02/22 05:20:45;;;;;;;;;;;;;;;;;;5069606;28;19922;-75
2024/02/22 05:23:10;;;;;;;;;;;;;;;;;;5070365;28;19956;-76
2024/02/22 05:25:35;;;;;;;;;;;;;;;;;;5070092;28;19918;-75
2024/02/22 05:28:00;;;;;;;;;;;;;;;;;;5070603;28;19963;-75
2024/02/22 05:30:25;;;;;;;;;;;;;;;;;;5053780;28;19963;-75
2024/02/22 05:32:50;;;;;;;;;;;;;;;;;;5069077;28;19916;-75
2024/02/22 05:35:15;;;;;;;;;;;;;;;;;;5070847;28;19939;-75
2024/02/22 05:37:41;;;;;;;;;;;;;;;;;;5069010;28;19924;-75
2024/02/22 05:40:08;;;;;;;;;;;;;;;;;;5069346;28;20007;-75
2024/02/22 05:42:33;;;;;;;;;;;;;;;;;;5069234;28;20388;-75
2024/02/22 05:44:58;;;;;;;;;;;;;;;;;;5067076;28;19919;-76
2024/02/22 05:47:23;;;;;;;;;;;;;;;;;;5070680;28;20407;-75
2024/02/22 05:49:48;;;;;;;;;;;;;;;;;;5068402;28;19920;-74
2024/02/22 05:52:13;;;;;;;;;;;;;;;;;;5069095;28;19916;-74
2024/02/22 05:54:38;;;;;;;;;;;;;;;;;;5068895;28;19948;-74
2024/02/22 05:57:04;;;;;;;;;;;;;;;;;;5069686;28;19912;-74
2024/02/22 05:59:29;;;;;;;;;;;;;;;;;;5068479;28;19912;-74
2024/02/22 06:01:54;;;;;;;;;;;;;;;;;;5067500;28;19912;-74
2024/02/22 06:04:19;;;;;;;;;;;;;;;;;;5051045;28;19916;-74
2024/02/22 06:06:44;;;;;;;;;;;;;;;;;;5068576;28;19949;-74
2024/02/22 06:09:09;;;;;;;;;;;;;;;;;;5068878;28;19920;-74
2024/02/22 06:11:35;;;;;;;;;;;;;;;;;;5049954;28;19917;-74
2024/02/22 06:14:00;;;;;;;;;;;;;;;;;;5069103;28;20338;-74
2024/02/22 06:16:26;;;;;;;;;;;;;;;;;;5069370;28;19920;-73
2024/02/22 06:18:51;;;;;;;;;;;;;;;;;;5066970;28;19974;-74
2024/02/22 06:21:16;;;;;;;;;;;;;;;;;;5067493;28;20051;-74
2024/02/22 06:23:41;;;;;;;;;;;;;;;;;;5068301;28;19912;-74
2024/02/22 06:26:06;;;;;;;;;;;;;;;;;;5069105;28;19990;-74
2024/02/22 06:28:33;;;;;;;;;;;;;;;;;;5069331;28;19912;-74
2024/02/22 06:30:58;;;;;;;;;;;;;;;;;;5068186;28;20273;-73
2024/02/22 06:33:23;;;;;;;;;;;;;;;;;;5069817;28;20296;-74
2024/02/22 06:35:49;;;;;;;;;;;;;;;;;;5069544;28;19909;-74
2024/02/22 06:38:14;;;;;;;;;;;;;;;;;;5069287;28;20369;-73
2024/02/22 06:40:39;;;;;;;;;;;;;;;;;;5069588;28;19968;-74
2024/02/22 06:43:05;;;;;;;;;;;;;;;;;;5068491;28;19991;-74
2024/02/22 06:45:30;;;;;;;;;;;;;;;;;;5069311;28;19946;-74
2024/02/22 06:47:55;;;;;;;;;;;;;;;;;;5067715;28;20398;-74
2024/02/22 06:50:20;;;;;;;;;;;;;;;;;;5068765;28;19928;-74
2024/02/22 06:52:48;;;;;;;;;;;;;;;;;;5066091;28;20261;-74
2024/02/22 06:55:13;;;;;;;;;;;;;;;;;;5069336;28;19919;-74
2024/02/22 06:57:38;;;;;;;;;;;;;;;;;;5069155;28;19916;-74
2024/02/22 07:00:03;;;;;;;;;;;;;;;;;;5068756;28;19992;-76
2024/02/22 07:02:28;;;;;;;;;;;;;;;;;;5069054;28;19916;-76
2024/02/22 07:04:54;;;;;;;;;;;;;;;;;;5066764;28;20316;-76
2024/02/22 07:07:19;;;;;;;;;;;;;;;;;;5067057;28;20407;-77
2024/02/22 07:09:44;;;;;;;;;;;;;;;;;;5067317;28;19975;-77
2024/02/22 07:12:09;;;;;;;;;;;;;;;;;;5068345;28;20277;-76
2024/02/22 07:14:34;;;;;;;;;;;;;;;;;;5070863;28;19913;-77
2024/02/22 07:16:59;;;;;;;;;;;;;;;;;;5067515;28;19997;-76
2024/02/22 07:19:24;;;;;;;;;;;;;;;;;;5068407;28;19916;-76
2024/02/22 07:21:49;;;;;;;;;;;;;;;;;;5067117;28;19923;-77
2024/02/22 07:24:16;;;;;;;;;;;;;;;;;;5068495;28;20305;-76
2024/02/22 07:26:41;;;;;;;;;;;;;;;;;;5066263;28;20410;-77
2024/02/22 07:29:07;;;;;;;;;;;;;;;;;;5050392;28;19925;-77
2024/02/22 07:31:32;;;;;;;;;;;;;;;;;;5049650;28;19917;-77
2024/02/22 07:33:57;;;;;;;;;;;;;;;;;;5067256;28;20387;-77
2024/02/22 07:36:22;;;;;;;;;;;;;;;;;;5068028;28;19912;-76
2024/02/22 07:38:47;;;;;;;;;;;;;;;;;;5069469;28;19921;-77
2024/02/22 07:41:15;;;;;;;;;;;;;;;;;;5066431;28;19916;-77
2024/02/22 07:43:41;;;;;;;;;;;;;;;;;;5069493;28;19970;-77
2024/02/22 07:46:06;;;;;;;;;;;;;;;;;;5068834;28;20372;-75
2024/02/22 07:48:31;;;;;;;;;;;;;;;;;;5071951;28;19913;-77
2024/02/22 07:50:57;;;;;;;;;;;;;;;;;;5071682;28;19916;-77
2024/02/22 07:53:22;;;;;;;;;;;;;;;;;;5068800;28;19920;-77
2024/02/22 07:55:47;;;;;;;;;;;;;;;;;;5071830;28;20328;-77
2024/02/22 07:58:12;;;;;;;;;;;;;;;;;;5071568;28;19916;-77
2024/02/22 08:00:37;;;;;;;;;;;;;;;;;;5068520;28;20585;-74
2024/02/22 08:03:02;;;;;;;;;;;;;;;;;;5070590;28;19912;-78
2024/02/22 08:05:28;;;;;;;;;;;;;;;;;;5070107;28;19912;-78
2024/02/22 08:07:53;;;;;;;;;;;;;;;;;;5068601;28;19913;-78
2024/02/22 08:10:18;;;;;;;;;;;;;;;;;;5074011;28;20410;-75
2024/02/22 08:12:43;;;;;;;;;;;;;;;;;;5071417;28;20403;-76
2024/02/22 08:15:08;;;;;;;;;;;;;;;;;;5066262;28;19917;-76
2024/02/22 08:17:36;;;;;;;;;;;;;;;;;;5072256;28;19912;-75
2024/02/22 08:20:01;;;;;;;;;;;;;;;;;;5069312;28;20388;-75
2024/02/22 08:22:29;;;;;;;;;;;;;;;;;;5049067;28;19931;-76
2024/02/22 08:24:54;;;;;;;;;;;;;;;;;;5070577;28;19920;-75
2024/02/22 08:27:19;;;;;;;;;;;;;;;;;;5070624;28;20299;-75
2024/02/22 08:29:48;;;;;;;;;;;;;;;;;;5068600;28;19912;-75
2024/02/22 08:32:14;;;;;;;;;;;;;;;;;;5069280;28;19942;-76
2024/02/22 08:34:39;;;;;;;;;;;;;;;;;;5052766;28;19912;-76
2024/02/22 08:37:04;;;;;;;;;;;;;;;;;;5067760;28;19999;-76
2024/02/22 08:39:29;;;;;;;;;;;;;;;;;;5070892;28;19923;-76
2024/02/22 08:41:54;;;;;;;;;;;;;;;;;;5070381;28;19963;-76
2024/02/22 08:44:19;;;;;;;;;;;;;;;;;;5070748;28;19912;-75
2024/02/22 08:46:44;;;;;;;;;;;;;;;;;;5070110;28;19908;-76
2024/02/22 08:49:10;;;;;;;;;;;;;;;;;;5070860;28;19916;-76
2024/02/22 08:51:35;;;;;;;;;;;;;;;;;;5070303;28;19991;-76
2024/02/22 08:54:00;;;;;;;;;;;;;;;;;;5069516;28;19912;-76
2024/02/22 08:56:25;;;;;;;;;;;;;;;;;;5069798;28;20007;-76
2024/02/22 08:58:51;;;;;;;;;;;;;;;;;;5072532;28;20055;-76
2024/02/22 09:01:16;;;;;;;;;;;;;;;;;;5065558;28;19912;-76
2024/02/22 09:03:41;;;;;;;;;;;;;;;;;;5069441;28;19913;-76
2024/02/22 09:06:06;;;;;;;;;;;;;;;;;;5069606;28;19912;-77
2024/02/22 09:08:31;;;;;;;;;;;;;;;;;;5067874;28;20046;-76
2024/02/22 09:10:56;;;;;;;;;;;;;;;;;;5069377;28;19977;-76
2024/02/22 09:13:21;;;;;;;;;;;;;;;;;;5070105;28;19908;-76
2024/02/22 09:15:50;;;;;;;;;;;;;;;;;;5053882;28;19917;-76
2024/02/22 09:18:15;;;;;;;;;;;;;;;;;;5071010;28;19918;-78
2024/02/22 09:20:40;;;;;;;;;;;;;;;;;;5069475;28;19943;-78
2024/02/22 09:23:05;;;;;;;;;;;;;;;;;;5072145;28;19981;-79
2024/02/22 09:25:30;;;;;;;;;;;;;;;;;;5053040;28;19913;-78
2024/02/22 09:27:56;;;;;;;;;;;;;;;;;;5067677;28;19923;-78
2024/02/22 09:30:21;;;;;;;;;;;;;;;;;;5073881;28;19958;-77
2024/02/22 09:32:46;;;;;;;;;;;;;;;;;;5070825;28;19916;-76
2024/02/22 09:35:11;;;;;;;;;;;;;;;;;;5069313;28;19916;-78
2024/02/22 09:37:36;;;;;;;;;;;;;;;;;;5069245;28;20371;-76
2024/02/22 09:40:01;;;;;;;;;;;;;;;;;;5067170;28;19920;-78
2024/02/22 09:42:27;;;;;;;;;;;;;;;;;;5072375;28;19932;-78
2024/02/22 09:44:52;;;;;;;;;;;;;;;;;;5071972;28;20318;-78
2024/02/22 09:47:17;;;;;;;;;;;;;;;;;;5070413;28;19920;-78
2024/02/22 09:49:43;;;;;;;;;;;;;;;;;;5069369;28;19912;-79
2024/02/22 09:52:08;;;;;;;;;;;;;;;;;;5068859;28;19969;-78
2024/02/22 09:54:33;;;;;;;;;;;;;;;;;;5068835;28;19985;-79
2024/02/22 09:56:59;;;;;;;;;;;;;;;;;;5068532;28;19923;-78
2024/02/22 09:59:24;;;;;;;;;;;;;;;;;;5067575;28;19920;-77
2024/02/22 10:01:50;;;;;;;;;;;;;;;;;;5067964;28;20281;-77
2024/02/22 10:04:23;;;;;;;;;;;;;;;;;;5069788;28;19940;-77
2024/02/22 10:06:48;;;;;;;;;;;;;;;;;;5068252;28;20288;-75
2024/02/22 10:09:16;;;;;;;;;;;;;;;;;;5069328;28;19920;-77
2024/02/22 10:11:41;;;;;;;;;;;;;;;;;;5066534;28;20295;-77
2024/02/22 10:14:07;;;;;;;;;;;;;;;;;;5069125;28;19912;-78
2024/02/22 10:16:32;;;;;;;;;;;;;;;;;;5067327;28;19912;-77
2024/02/22 10:18:57;;;;;;;;;;;;;;;;;;5070983;28;19972;-77
2024/02/22 10:21:22;;;;;;;;;;;;;;;;;;5068606;28;19943;-77
2024/02/22 10:23:49;;;;;;;;;;;;;;;;;;5068532;28;19924;-77
2024/02/22 10:26:15;;;;;;;;;;;;;;;;;;5068391;28;20549;-77
2024/02/22 10:28:40;;;;;;;;;;;;;;;;;;5051279;28;19912;-76
2024/02/22 10:31:06;;;;;;;;;;;;;;;;;;5069044;28;19920;-76
2024/02/22 10:33:31;;;;;;;;;;;;;;;;;;5070279;28;20330;-76
2024/02/22 10:35:56;;;;;;;;;;;;;;;;;;5066623;28;19922;-76
2024/02/22 10:38:21;;;;;;;;;;;;;;;;;;5065461;28;19944;-77
2024/02/22 10:40:48;;;;;;;;;;;;;;;;;;5069039;28;19920;-77
2024/02/22 10:43:13;;;;;;;;;;;;;;;;;;5048757;28;20012;-76
2024/02/22 10:45:40;;;;;;;;;;;;;;;;;;5048218;28;20032;-77
2024/02/22 10:48:05;;;;;;;;;;;;;;;;;;5048535;28;19917;-77
2024/02/22 10:50:30;;;;;;;;;;;;;;;;;;5050942;28;19913;-76
2024/02/22 10:52:56;;;;;;;;;;;;;;;;;;5048656;28;19913;-76
2024/02/22 10:55:21;;;;;;;;;;;;;;;;;;5052500;28;20361;-76
2024/02/22 10:57:46;;;;;;;;;;;;;;;;;;5046114;28;20475;-76
2024/02/22 11:00:11;;;;;;;;;;;;;;;;;;5048094;28;20254;-76
2024/02/22 11:02:36;;;;;;;;;;;;;;;;;;5048451;28;19963;-76
2024/02/22 11:05:02;;;;;;;;;;;;;;;;;;5048270;28;19920;-77
2024/02/22 11:07:28;;;;;;;;;;;;;;;;;;5050529;28;19957;-76
2024/02/22 11:09:54;;;;;;;;;;;;;;;;;;5048062;28;19999;-78
2024/02/22 11:12:19;;;;;;;;;;;;;;;;;;5043813;28;19969;-78
2024/02/22 11:14:44;;;;;;;;;;;;;;;;;;5048488;28;19912;-76
2024/02/22 11:17:10;;;;;;;;;;;;;;;;;;5047123;28;19916;-77
2024/02/22 11:19:35;;;;;;;;;;;;;;;;;;5050707;28;19917;-77
2024/02/22 11:22:00;;;;;;;;;;;;;;;;;;5053105;28;19954;-78
2024/02/22 11:24:25;;;;;;;;;;;;;;;;;;5052754;28;19913;-77
2024/02/22 11:26:55;;;;;;;;;;;;;;;;;;5053927;28;19920;-77
2024/02/22 11:29:21;;;;;;;;;;;;;;;;;;5052832;28;19955;-77
2024/02/22 11:31:47;;;;;;;;;;;;;;;;;;5049177;28;19920;-76
2024/02/22 11:34:15;;;;;;;;;;;;;;;;;;5051359;28;19919;-77
2024/02/22 11:36:40;;;;;;;;;;;;;;;;;;5049937;28;19913;-78
2024/02/22 11:39:06;;;;;;;;;;;;;;;;;;5051054;28;19923;-74
2024/02/22 11:41:31;;;;;;;;;;;;;;;;;;5056147;28;20380;-76
2024/02/22 11:43:56;;;;;;;;;;;;;;;;;;5071742;28;19920;-76
2024/02/22 11:46:21;;;;;;;;;;;;;;;;;;5071553;28;19913;-76
2024/02/22 11:48:46;;;;;;;;;;;;;;;;;;5068643;28;19913;-76
2024/02/22 11:51:12;;;;;;;;;;;;;;;;;;5051785;28;19920;-76
2024/02/22 11:53:37;;;;;;;;;;;;;;;;;;5069000;28;19916;-76
2024/02/22 11:56:02;;;;;;;;;;;;;;;;;;5072185;28;20262;-76
2024/02/22 11:58:27;;;;;;;;;;;;;;;;;;5071112;28;19920;-77
2024/02/22 12:00:52;;;;;;;;;;;;;;;;;;5072530;28;19920;-76
2024/02/22 12:03:17;;;;;;;;;;;;;;;;;;5070982;28;19966;-75
2024/02/22 12:05:43;;;;;;;;;;;;;;;;;;5071632;28;19912;-75
2024/02/22 12:08:08;;;;;;;;;;;;;;;;;;5069557;28;19912;-76
2024/02/22 12:10:33;;;;;;;;;;;;;;;;;;5070339;28;19973;-76
2024/02/22 12:12:59;;;;;;;;;;;;;;;;;;5071188;28;19916;-76
2024/02/22 12:15:25;;;;;;;;;;;;;;;;;;5070704;28;20476;-76
2024/02/22 12:17:50;;;;;;;;;;;;;;;;;;5071169;28;19919;-76
2024/02/22 12:20:15;;;;;;;;;;;;;;;;;;5070821;28;19920;-76
2024/02/22 12:22:40;;;;;;;;;;;;;;;;;;5071172;28;19921;-76
2024/02/22 12:25:06;;;;;;;;;;;;;;;;;;5069410;28;19916;-75
2024/02/22 12:27:32;;;;;;;;;;;;;;;;;;5070910;28;19963;-75
2024/02/22 12:29:58;;;;;;;;;;;;;;;;;;5068882;28;19952;-76
2024/02/22 12:32:23;;;;;;;;;;;;;;;;;;5050756;28;20582;-74
2024/02/22 12:34:48;;;;;;;;;;;;;;;;;;5073158;28;19967;-74
2024/02/22 12:37:13;;;;;;;;;;;;;;;;;;5070647;28;20289;-74
2024/02/22 12:39:39;;;;;;;;;;;;;;;;;;5073274;28;21191;-75
2024/02/22 12:42:05;;;;;;;;;;;;;;;;;;5070605;28;19931;-76
2024/02/22 12:44:30;;;;;;;;;;;;;;;;;;5070775;28;19916;-76
2024/02/22 12:46:58;;;;;;;;;;;;;;;;;;5072815;28;20006;-75
2024/02/22 12:49:23;;;;;;;;;;;;;;;;;;5073227;28;19938;-75
2024/02/22 12:51:49;;;;;;;;;;;;;;;;;;5068978;28;20023;-74
2024/02/22 12:54:14;;;;;;;;;;;;;;;;;;5070597;28;19938;-75
2024/02/22 12:56:39;;;;;;;;;;;;;;;;;;5067402;28;19979;-74
2024/02/22 12:59:04;;;;;;;;;;;;;;;;;;5072732;28;19912;-75
2024/02/22 13:01:30;;;;;;;;;;;;;;;;;;5070157;28;20394;-75
2024/02/22 13:03:57;;;;;;;;;;;;;;;;;;5056468;28;19920;-75
2024/02/22 13:06:22;;;;;;;;;;;;;;;;;;5070371;28;19916;-73
2024/02/22 13:08:48;;;;;;;;;;;;;;;;;;5070268;28;19927;-74
2024/02/22 13:11:13;;;;;;;;;;;;;;;;;;5068971;28;19917;-74
2024/02/22 13:13:38;;;;;;;;;;;;;;;;;;5070669;28;19923;-73
2024/02/22 13:16:04;;;;;;;;;;;;;;;;;;5052819;28;19912;-74
2024/02/22 13:18:29;;;;;;;;;;;;;;;;;;5050770;28;20399;-74
2024/02/22 13:20:54;;;;;;;;;;;;;;;;;;5071275;28;20301;-75
2024/02/22 13:23:22;;;;;;;;;;;;;;;;;;5070648;28;19919;-75
2024/02/22 13:25:47;;;;;;;;;;;;;;;;;;5054970;28;19919;-74
2024/02/22 13:28:12;;;;;;;;;;;;;;;;;;5055503;28;19999;-74
2024/02/22 13:30:38;;;;;;;;;;;;;;;;;;5054821;28;19916;-74
2024/02/22 13:33:03;;;;;;;;;;;;;;;;;;5070832;28;20384;-75
2024/02/22 13:35:29;;;;;;;;;;;;;;;;;;5070109;28;19912;-78
2024/02/22 13:37:55;;;;;;;;;;;;;;;;;;5069611;28;19913;-81
2024/02/22 13:40:21;;;;;;;;;;;;;;;;;;5072154;28;20307;-82
2024/02/22 13:42:46;;;;;;;;;;;;;;;;;;5072874;28;20005;-77
2024/02/22 13:45:11;;;;;;;;;;;;;;;;;;5071639;28;20007;-81
2024/02/22 13:47:38;;;;;;;;;;;;;;;;;;5067001;28;19996;-80
2024/02/22 13:50:03;;;;;;;;;;;;;;;;;;5076299;28;19912;-80
2024/02/22 13:52:29;;;;;;;;;;;;;;;;;;5074485;28;19922;-78
2024/02/22 13:54:54;;;;;;;;;;;;;;;;;;5055916;28;19967;-80
2024/02/22 13:57:19;;;;;;;;;;;;;;;;;;5071001;28;19989;-80
2024/02/22 13:59:44;;;;;;;;;;;;;;;;;;5051934;28;19928;-76
2024/02/22 14:02:09;;;;;;;;;;;;;;;;;;5052310;28;19919;-76
2024/02/22 14:04:34;;;;;;;;;;;;;;;;;;5070788;28;19919;-75
2024/02/22 14:07:00;;;;;;;;;;;;;;;;;;5051539;28;19913;-76
2024/02/22 14:09:25;;;;;;;;;;;;;;;;;;5067267;28;20294;-74
2024/02/22 14:11:50;;;;;;;;;;;;;;;;;;5068891;28;19920;-75
2024/02/22 14:14:15;;;;;;;;;;;;;;;;;;5062977;28;19917;-75
2024/02/22 14:16:40;;;;;;;;;;;;;;;;;;5068202;28;19916;-76
2024/02/22 14:19:06;;;;;;;;;;;;;;;;;;5069466;28;19917;-76
2024/02/22 14:21:31;;;;;;;;;;;;;;;;;;5064966;28;19924;-76
2024/02/22 14:23:56;;;;;;;;;;;;;;;;;;5067793;28;19921;-76
2024/02/22 14:26:21;;;;;;;;;;;;;;;;;;5066375;28;19927;-75
2024/02/22 14:28:47;;;;;;;;;;;;;;;;;;5069345;28;20388;-75
2024/02/22 14:31:12;;;;;;;;;;;;;;;;;;5068133;28;19951;-75
2024/02/22 14:33:38;;;;;;;;;;;;;;;;;;5069220;28;19930;-77
2024/02/22 14:36:03;;;;;;;;;;;;;;;;;;5050338;28;19935;-75
2024/02/22 14:38:28;;;;;;;;;;;;;;;;;;5068541;28;19921;-76
2024/02/22 14:41:02;;;;;;;;;;;;;;;;;;5069727;28;19917;-76
2024/02/22 14:43:28;;;;;;;;;;;;;;;;;;5028843;28;19929;-76
2024/02/22 14:45:53;;;;;;;;;;;;;;;;;;5028477;28;19913;-76
2024/02/22 14:48:18;;;;;;;;;;;;;;;;;;5028603;28;20010;-76
2024/02/22 14:50:43;;;;;;;;;;;;;;;;;;5028834;28;19917;-76
2024/02/22 14:53:09;;;;;;;;;;;;;;;;;;5030083;28;20007;-75
2024/02/22 14:55:34;;;;;;;;;;;;;;;;;;5036144;28;19917;-75
2024/02/22 14:57:59;;;;;;;;;;;;;;;;;;5029853;28;19913;-75
2024/02/22 15:00:24;;;;;;;;;;;;;;;;;;5034399;28;20509;-76
2024/02/22 15:02:50;;;;;;;;;;;;;;;;;;5033215;28;19920;-75
2024/02/22 15:05:15;;;;;;;;;;;;;;;;;;5033175;28;19936;-76
2024/02/22 15:07:40;;;;;;;;;;;;;;;;;;5032186;28;19923;-75
2024/02/22 15:10:05;;;;;;;;;;;;;;;;;;5032070;28;19959;-76
2024/02/22 15:12:31;;;;;;;;;;;;;;;;;;5031954;28;19924;-76
2024/02/22 15:14:56;;;;;;;;;;;;;;;;;;5032360;28;19947;-77
2024/02/22 15:17:24;;;;;;;;;;;;;;;;;;5033093;28;20404;-77
2024/02/22 15:19:52;;;;;;;;;;;;;;;;;;5032755;28;20010;-77
2024/02/22 15:22:17;;;;;;;;;;;;;;;;;;5031384;28;20649;-77
2024/02/22 15:24:42;;;;;;;;;;;;;;;;;;5031157;28;19971;-78
2024/02/22 15:27:09;;;;;;;;;;;;;;;;;;5030262;28;19920;-78
2024/02/22 15:29:34;;;;;;;;;;;;;;;;;;5033283;28;19935;-78
2024/02/22 15:32:01;;;;;;;;;;;;;;;;;;5032451;28;19917;-76
2024/02/22 15:34:26;;;;;;;;;;;;;;;;;;5031958;28;19921;-76
2024/02/22 15:36:54;;;;;;;;;;;;;;;;;;5032372;28;19921;-76
2024/02/22 15:39:19;;;;;;;;;;;;;;;;;;5031590;28;19913;-76
2024/02/22 15:41:44;;;;;;;;;;;;;;;;;;5046323;28;19928;-75
2024/02/22 15:44:09;;;;;;;;;;;;;;;;;;5070205;28;19920;-73
2024/02/22 15:46:35;;;;;;;;;;;;;;;;;;5071962;28;19919;-74
2024/02/22 15:49:00;;;;;;;;;;;;;;;;;;5069223;28;19920;-74
2024/02/22 15:51:25;;;;;;;;;;;;;;;;;;5072148;28;19931;-74
2024/02/22 15:53:50;;;;;;;;;;;;;;;;;;5072211;28;19999;-74
2024/02/22 15:56:15;;;;;;;;;;;;;;;;;;5072238;28;20318;-74
2024/02/22 15:58:41;;;;;;;;;;;;;;;;;;5072531;28;19913;-75
2024/02/22 16:01:06;;;;;;;;;;;;;;;;;;5072397;28;19921;-74
2024/02/22 16:03:32;;;;;;;;;;;;;;;;;;5069826;28;19916;-74
2024/02/22 16:05:57;;;;;;;;;;;;;;;;;;5072436;28;19920;-75
2024/02/22 16:08:23;;;;;;;;;;;;;;;;;;5071903;28;19920;-74
2024/02/22 16:10:48;;;;;;;;;;;;;;;;;;5071060;28;20410;-74
2024/02/22 16:13:15;;;;;;;;;;;;;;;;;;5071307;28;20000;-74
2024/02/22 16:15:42;;;;;;;;;;;;;;;;;;5070757;28;20323;-74
2024/02/22 16:18:07;;;;;;;;;;;;;;;;;;5070924;28;19966;-74
2024/02/22 16:20:32;;;;;;;;;;;;;;;;;;5066821;28;20377;-75
2024/02/22 16:22:58;;;;;;;;;;;;;;;;;;5068202;28;19920;-75
2024/02/22 16:25:23;;;;;;;;;;;;;;;;;;5066809;28;19979;-75
2024/02/22 16:27:48;;;;;;;;;;;;;;;;;;5068983;28;19920;-75
2024/02/22 16:30:13;;;;;;;;;;;;;;;;;;5068321;28;19943;-75
2024/02/22 16:32:40;;;;;;;;;;;;;;;;;;5067450;28;19924;-75